Terminal Aerodrome Forecast
Issued by NWS

Home | Current Version | Previous Version | Text Only | Print | Product List | Glossary On
Versions: 1 2 3 4 5 6 7 8 9 10 11 12 13 14 15 16 17 18 19
000
FTUS43 KIWX 181124
TAFSBN
TAF
KSBN 181124Z 1812/1912 VRB02KT 2SM -RA BR OVC006
     FM181400 05005KT 1SM -RA BR OVC003
     FM181700 34016G23KT 3/4SM RA BR OVC006
     FM190000 32018G26KT P6SM OVC015=

USA.gov is the U.S. government's official web portal to all federal, state and local government web resources and services.